sensor_id;sensor_type;location;lat;lon;timestamp;P1;durP1;ratioP1;P2;durP2;ratioP2
69906;SDS011;57190;47.918;8.112;2024-01-15T00:00:41;12.33;;;9.17;;
69906;SDS011;57190;47.918;8.112;2024-01-15T00:03:07;14.40;;;9.43;;
69906;SDS011;57190;47.918;8.112;2024-01-15T00:05:32;13.93;;;10.27;;
69906;SDS011;57190;47.918;8.112;2024-01-15T00:07:58;13.40;;;9.30;;
69906;SDS011;57190;47.918;8.112;2024-01-15T00:10:23;14.03;;;10.17;;
69906;SDS011;57190;47.918;8.112;2024-01-15T00:12:49;14.00;;;10.03;;
69906;SDS011;57190;47.918;8.112;2024-01-15T00:15:14;13.20;;;9.90;;
69906;SDS011;57190;47.918;8.112;2024-01-15T00:17:40;14.87;;;10.00;;
69906;SDS011;57190;47.918;8.112;2024-01-15T00:20:06;15.13;;;10.90;;
69906;SDS011;57190;47.918;8.112;2024-01-15T00:22:32;14.30;;;9.97;;
69906;SDS011;57190;47.918;8.112;2024-01-15T00:24:57;14.07;;;9.83;;
69906;SDS011;57190;47.918;8.112;2024-01-15T00:27:23;14.37;;;9.17;;
69906;SDS011;57190;47.918;8.112;2024-01-15T00:29:49;13.53;;;8.57;;
69906;SDS011;57190;47.918;8.112;2024-01-15T00:32:16;13.03;;;9.17;;
69906;SDS011;57190;47.918;8.112;2024-01-15T00:34:42;13.30;;;9.30;;
69906;SDS011;57190;47.918;8.112;2024-01-15T00:37:07;13.27;;;10.17;;
69906;SDS011;57190;47.918;8.112;2024-01-15T00:39:33;15.57;;;10.20;;
69906;SDS011;57190;47.918;8.112;2024-01-15T00:41:58;13.50;;;8.87;;
69906;SDS011;57190;47.918;8.112;2024-01-15T00:44:24;13.97;;;9.97;;
69906;SDS011;57190;47.918;8.112;2024-01-15T00:46:49;15.27;;;10.13;;
69906;SDS011;57190;47.918;8.112;2024-01-15T00:49:15;13.80;;;9.33;;
69906;SDS011;57190;47.918;8.112;2024-01-15T00:51:41;12.00;;;8.67;;
69906;SDS011;57190;47.918;8.112;2024-01-15T00:54:07;14.50;;;9.47;;
69906;SDS011;57190;47.918;8.112;2024-01-15T00:56:32;13.77;;;9.00;;
69906;SDS011;57190;47.918;8.112;2024-01-15T00:58:58;14.23;;;8.87;;
69906;SDS011;57190;47.918;8.112;2024-01-15T01:01:24;14.03;;;10.20;;
69906;SDS011;57190;47.918;8.112;2024-01-15T01:03:50;13.57;;;9.67;;
69906;SDS011;57190;47.918;8.112;2024-01-15T01:06:15;14.07;;;9.53;;
69906;SDS011;57190;47.918;8.112;2024-01-15T01:08:41;13.57;;;8.97;;
69906;SDS011;57190;47.918;8.112;2024-01-15T01:11:06;15.27;;;10.83;;
69906;SDS011;57190;47.918;8.112;2024-01-15T01:13:32;14.03;;;8.67;;
69906;SDS011;57190;47.918;8.112;2024-01-15T01:15:58;13.80;;;9.60;;
69906;SDS011;57190;47.918;8.112;2024-01-15T01:18:23;13.30;;;9.50;;
69906;SDS011;57190;47.918;8.112;2024-01-15T01:20:49;13.73;;;9.80;;
69906;SDS011;57190;47.918;8.112;2024-01-15T01:23:14;13.47;;;9.37;;
69906;SDS011;57190;47.918;8.112;2024-01-15T01:25:40;11.20;;;7.17;;
69906;SDS011;57190;47.918;8.112;2024-01-15T01:28:05;10.10;;;7.80;;
69906;SDS011;57190;47.918;8.112;2024-01-15T01:30:31;15.00;;;8.73;;
69906;SDS011;57190;47.918;8.112;2024-01-15T01:32:56;9.40;;;6.97;;
69906;SDS011;57190;47.918;8.112;2024-01-15T01:35:22;9.57;;;6.63;;
69906;SDS011;57190;47.918;8.112;2024-01-15T01:37:47;8.23;;;6.17;;
69906;SDS011;57190;47.918;8.112;2024-01-15T01:40:13;7.93;;;6.13;;
69906;SDS011;57190;47.918;8.112;2024-01-15T01:42:39;9.50;;;6.43;;
69906;SDS011;57190;47.918;8.112;2024-01-15T01:45:04;7.73;;;5.87;;
69906;SDS011;57190;47.918;8.112;2024-01-15T01:47:30;8.63;;;6.07;;
69906;SDS011;57190;47.918;8.112;2024-01-15T02:00:11;7.33;;;5.17;;
69906;SDS011;57190;47.918;8.112;2024-01-15T02:02:37;7.37;;;5.23;;
69906;SDS011;57190;47.918;8.112;2024-01-15T02:05:03;6.40;;;5.07;;
69906;SDS011;57190;47.918;8.112;2024-01-15T02:07:29;7.33;;;5.77;;
69906;SDS011;57190;47.918;8.112;2024-01-15T02:09:56;5.60;;;4.27;;
69906;SDS011;57190;47.918;8.112;2024-01-15T02:12:21;5.83;;;4.20;;
69906;SDS011;57190;47.918;8.112;2024-01-15T02:14:47;6.43;;;4.53;;
69906;SDS011;57190;47.918;8.112;2024-01-15T02:17:12;5.60;;;3.43;;
69906;SDS011;57190;47.918;8.112;2024-01-15T02:19:38;4.37;;;3.03;;
69906;SDS011;57190;47.918;8.112;2024-01-15T02:22:05;2.93;;;2.57;;
69906;SDS011;57190;47.918;8.112;2024-01-15T02:24:31;4.93;;;3.33;;
69906;SDS011;57190;47.918;8.112;2024-01-15T02:26:56;4.87;;;3.53;;
69906;SDS011;57190;47.918;8.112;2024-01-15T02:29:22;5.23;;;3.47;;
69906;SDS011;57190;47.918;8.112;2024-01-15T02:31:47;3.60;;;2.80;;
69906;SDS011;57190;47.918;8.112;2024-01-15T02:34:13;3.57;;;2.40;;
69906;SDS011;57190;47.918;8.112;2024-01-15T02:36:38;3.97;;;2.60;;
69906;SDS011;57190;47.918;8.112;2024-01-15T02:39:04;3.00;;;2.10;;
69906;SDS011;57190;47.918;8.112;2024-01-15T02:41:29;2.13;;;1.70;;
69906;SDS011;57190;47.918;8.112;2024-01-15T02:43:55;1.83;;;1.30;;
69906;SDS011;57190;47.918;8.112;2024-01-15T02:46:20;2.30;;;2.07;;
69906;SDS011;57190;47.918;8.112;2024-01-15T02:48:46;1.50;;;1.40;;
69906;SDS011;57190;47.918;8.112;2024-01-15T02:51:11;1.60;;;1.50;;
69906;SDS011;57190;47.918;8.112;2024-01-15T02:53:37;1.90;;;1.40;;
69906;SDS011;57190;47.918;8.112;2024-01-15T02:56:02;2.07;;;1.70;;
69906;SDS011;57190;47.918;8.112;2024-01-15T02:58:28;2.13;;;1.73;;
69906;SDS011;57190;47.918;8.112;2024-01-15T03:00:53;1.60;;;1.50;;
69906;SDS011;57190;47.918;8.112;2024-01-15T03:03:19;1.60;;;1.50;;
69906;SDS011;57190;47.918;8.112;2024-01-15T03:05:44;1.77;;;1.63;;
69906;SDS011;57190;47.918;8.112;2024-01-15T03:08:10;1.97;;;1.40;;
69906;SDS011;57190;47.918;8.112;2024-01-15T03:10:35;1.83;;;1.63;;
69906;SDS011;57190;47.918;8.112;2024-01-15T03:13:01;2.17;;;1.97;;
69906;SDS011;57190;47.918;8.112;2024-01-15T03:15:27;1.63;;;1.37;;
69906;SDS011;57190;47.918;8.112;2024-01-15T03:17:52;1.33;;;1.23;;
69906;SDS011;57190;47.918;8.112;2024-01-15T03:20:17;1.47;;;1.37;;
69906;SDS011;57190;47.918;8.112;2024-01-15T03:22:43;2.23;;;1.43;;
69906;SDS011;57190;47.918;8.112;2024-01-15T03:25:08;1.40;;;1.30;;
69906;SDS011;57190;47.918;8.112;2024-01-15T03:27:34;1.90;;;1.70;;
69906;SDS011;57190;47.918;8.112;2024-01-15T03:30:00;2.40;;;1.40;;
69906;SDS011;57190;47.918;8.112;2024-01-15T03:32:25;1.50;;;1.40;;
69906;SDS011;57190;47.918;8.112;2024-01-15T03:34:51;1.57;;;1.30;;
69906;SDS011;57190;47.918;8.112;2024-01-15T03:37:17;1.80;;;1.60;;
69906;SDS011;57190;47.918;8.112;2024-01-15T03:39:42;1.97;;;1.77;;
69906;SDS011;57190;47.918;8.112;2024-01-15T03:42:08;1.63;;;1.40;;
69906;SDS011;57190;47.918;8.112;2024-01-15T03:44:33;1.63;;;1.47;;
69906;SDS011;57190;47.918;8.112;2024-01-15T03:46:59;1.53;;;1.40;;
69906;SDS011;57190;47.918;8.112;2024-01-15T03:49:25;1.80;;;1.70;;
69906;SDS011;57190;47.918;8.112;2024-01-15T03:51:51;1.80;;;1.70;;
69906;SDS011;57190;47.918;8.112;2024-01-15T03:54:16;2.17;;;1.77;;
69906;SDS011;57190;47.918;8.112;2024-01-15T03:56:42;2.30;;;2.07;;
69906;SDS011;57190;47.918;8.112;2024-01-15T03:59:07;2.90;;;2.00;;
69906;SDS011;57190;47.918;8.112;2024-01-15T04:01:33;1.87;;;1.43;;
69906;SDS011;57190;47.918;8.112;2024-01-15T04:04:00;2.20;;;1.90;;
69906;SDS011;57190;47.918;8.112;2024-01-15T04:06:25;1.60;;;1.50;;
69906;SDS011;57190;47.918;8.112;2024-01-15T04:08:51;1.97;;;1.80;;
69906;SDS011;57190;47.918;8.112;2024-01-15T04:11:16;1.93;;;1.50;;
69906;SDS011;57190;47.918;8.112;2024-01-15T04:13:42;2.30;;;1.90;;
69906;SDS011;57190;47.918;8.112;2024-01-15T04:16:07;2.13;;;1.50;;
69906;SDS011;57190;47.918;8.112;2024-01-15T04:18:33;1.67;;;1.47;;
69906;SDS011;57190;47.918;8.112;2024-01-15T04:20:58;2.70;;;1.80;;
69906;SDS011;57190;47.918;8.112;2024-01-15T04:23:24;2.73;;;1.90;;
69906;SDS011;57190;47.918;8.112;2024-01-15T04:25:49;2.13;;;1.87;;
69906;SDS011;57190;47.918;8.112;2024-01-15T04:28:15;2.17;;;1.97;;
69906;SDS011;57190;47.918;8.112;2024-01-15T04:30:40;2.17;;;1.97;;
69906;SDS011;57190;47.918;8.112;2024-01-15T04:33:06;2.30;;;1.60;;
69906;SDS011;57190;47.918;8.112;2024-01-15T04:35:31;2.10;;;1.60;;
69906;SDS011;57190;47.918;8.112;2024-01-15T04:37:57;2.00;;;1.70;;
69906;SDS011;57190;47.918;8.112;2024-01-15T04:40:22;2.20;;;1.70;;
69906;SDS011;57190;47.918;8.112;2024-01-15T04:42:47;2.47;;;2.00;;
69906;SDS011;57190;47.918;8.112;2024-01-15T04:45:13;2.03;;;1.83;;
69906;SDS011;57190;47.918;8.112;2024-01-15T04:47:39;1.57;;;1.47;;
69906;SDS011;57190;47.918;8.112;2024-01-15T04:50:04;1.90;;;1.30;;
69906;SDS011;57190;47.918;8.112;2024-01-15T04:52:30;2.10;;;1.40;;
69906;SDS011;57190;47.918;8.112;2024-01-15T04:54:56;2.00;;;1.80;;
69906;SDS011;57190;47.918;8.112;2024-01-15T04:57:22;2.43;;;1.80;;
69906;SDS011;57190;47.918;8.112;2024-01-15T04:59:47;2.00;;;1.50;;
69906;SDS011;57190;47.918;8.112;2024-01-15T05:02:13;2.13;;;1.67;;
69906;SDS011;57190;47.918;8.112;2024-01-15T05:04:39;2.40;;;1.97;;
69906;SDS011;57190;47.918;8.112;2024-01-15T05:07:04;2.77;;;2.13;;
69906;SDS011;57190;47.918;8.112;2024-01-15T05:09:30;2.47;;;2.00;;
69906;SDS011;57190;47.918;8.112;2024-01-15T05:11:55;2.40;;;2.00;;
69906;SDS011;57190;47.918;8.112;2024-01-15T05:14:21;2.93;;;2.17;;
69906;SDS011;57190;47.918;8.112;2024-01-15T05:16:47;2.83;;;2.53;;
69906;SDS011;57190;47.918;8.112;2024-01-15T05:19:13;4.30;;;2.60;;
69906;SDS011;57190;47.918;8.112;2024-01-15T05:21:38;3.60;;;3.10;;
69906;SDS011;57190;47.918;8.112;2024-01-15T05:24:04;4.27;;;3.30;;
69906;SDS011;57190;47.918;8.112;2024-01-15T05:26:30;4.80;;;3.47;;
69906;SDS011;57190;47.918;8.112;2024-01-15T05:28:55;4.47;;;3.23;;
69906;SDS011;57190;47.918;8.112;2024-01-15T05:31:21;4.83;;;3.50;;
69906;SDS011;57190;47.918;8.112;2024-01-15T05:33:46;5.87;;;4.27;;
69906;SDS011;57190;47.918;8.112;2024-01-15T05:36:12;5.63;;;4.40;;
69906;SDS011;57190;47.918;8.112;2024-01-15T05:38:37;5.03;;;3.60;;
69906;SDS011;57190;47.918;8.112;2024-01-15T05:41:03;6.53;;;4.80;;
69906;SDS011;57190;47.918;8.112;2024-01-15T05:43:28;7.47;;;5.43;;
69906;SDS011;57190;47.918;8.112;2024-01-15T05:45:54;6.83;;;4.57;;
69906;SDS011;57190;47.918;8.112;2024-01-15T05:48:19;5.43;;;4.60;;
69906;SDS011;57190;47.918;8.112;2024-01-15T05:50:45;8.43;;;5.73;;
69906;SDS011;57190;47.918;8.112;2024-01-15T05:53:10;6.23;;;5.17;;
69906;SDS011;57190;47.918;8.112;2024-01-15T05:55:36;7.70;;;5.37;;
69906;SDS011;57190;47.918;8.112;2024-01-15T05:58:03;6.47;;;4.70;;
69906;SDS011;57190;47.918;8.112;2024-01-15T06:00:28;5.97;;;4.77;;
69906;SDS011;57190;47.918;8.112;2024-01-15T06:02:54;5.93;;;4.27;;
69906;SDS011;57190;47.918;8.112;2024-01-15T06:05:19;7.67;;;4.50;;
69906;SDS011;57190;47.918;8.112;2024-01-15T06:10:55;5.37;;;4.57;;
69906;SDS011;57190;47.918;8.112;2024-01-15T06:13:21;7.67;;;4.30;;
69906;SDS011;57190;47.918;8.112;2024-01-15T06:15:47;6.03;;;4.70;;
69906;SDS011;57190;47.918;8.112;2024-01-15T06:18:12;6.77;;;4.37;;
69906;SDS011;57190;47.918;8.112;2024-01-15T06:20:38;7.33;;;4.57;;
69906;SDS011;57190;47.918;8.112;2024-01-15T06:23:04;6.00;;;4.37;;
69906;SDS011;57190;47.918;8.112;2024-01-15T06:25:30;6.23;;;4.23;;
69906;SDS011;57190;47.918;8.112;2024-01-15T06:27:55;5.43;;;3.90;;
69906;SDS011;57190;47.918;8.112;2024-01-15T06:30:20;5.67;;;4.10;;
69906;SDS011;57190;47.918;8.112;2024-01-15T06:32:46;4.73;;;3.47;;
69906;SDS011;57190;47.918;8.112;2024-01-15T06:35:11;5.90;;;4.20;;
69906;SDS011;57190;47.918;8.112;2024-01-15T06:37:37;7.00;;;3.90;;
69906;SDS011;57190;47.918;8.112;2024-01-15T06:40:03;6.17;;;4.40;;
69906;SDS011;57190;47.918;8.112;2024-01-15T06:42:29;4.67;;;3.70;;
69906;SDS011;57190;47.918;8.112;2024-01-15T06:44:55;4.23;;;3.47;;
69906;SDS011;57190;47.918;8.112;2024-01-15T06:47:21;4.53;;;3.40;;
69906;SDS011;57190;47.918;8.112;2024-01-15T06:49:46;4.10;;;3.13;;
69906;SDS011;57190;47.918;8.112;2024-01-15T06:52:11;4.33;;;3.27;;
69906;SDS011;57190;47.918;8.112;2024-01-15T06:54:37;3.83;;;2.77;;
69906;SDS011;57190;47.918;8.112;2024-01-15T06:57:03;3.30;;;2.40;;
69906;SDS011;57190;47.918;8.112;2024-01-15T06:59:29;4.07;;;2.90;;
69906;SDS011;57190;47.918;8.112;2024-01-15T07:01:54;3.97;;;2.63;;
69906;SDS011;57190;47.918;8.112;2024-01-15T07:04:20;3.50;;;3.20;;
69906;SDS011;57190;47.918;8.112;2024-01-15T07:06:46;3.20;;;2.67;;
69906;SDS011;57190;47.918;8.112;2024-01-15T07:09:13;3.67;;;2.87;;
69906;SDS011;57190;47.918;8.112;2024-01-15T07:11:38;3.60;;;2.80;;
69906;SDS011;57190;47.918;8.112;2024-01-15T07:14:08;3.67;;;3.07;;
69906;SDS011;57190;47.918;8.112;2024-01-15T07:16:34;4.33;;;3.30;;
69906;SDS011;57190;47.918;8.112;2024-01-15T07:19:00;3.40;;;2.90;;
69906;SDS011;57190;47.918;8.112;2024-01-15T07:21:25;4.90;;;3.33;;
69906;SDS011;57190;47.918;8.112;2024-01-15T07:23:51;3.07;;;2.77;;
69906;SDS011;57190;47.918;8.112;2024-01-15T07:26:16;3.57;;;3.00;;
69906;SDS011;57190;47.918;8.112;2024-01-15T07:28:42;3.33;;;2.77;;
69906;SDS011;57190;47.918;8.112;2024-01-15T07:31:08;3.07;;;2.67;;
69906;SDS011;57190;47.918;8.112;2024-01-15T07:33:34;4.33;;;3.07;;
69906;SDS011;57190;47.918;8.112;2024-01-15T07:35:59;3.33;;;2.37;;
69906;SDS011;57190;47.918;8.112;2024-01-15T07:38:25;2.87;;;2.63;;
69906;SDS011;57190;47.918;8.112;2024-01-15T07:40:50;3.10;;;2.30;;
69906;SDS011;57190;47.918;8.112;2024-01-15T07:43:16;2.30;;;2.00;;
69906;SDS011;57190;47.918;8.112;2024-01-15T07:45:41;2.47;;;2.23;;
69906;SDS011;57190;47.918;8.112;2024-01-15T07:48:07;2.60;;;2.40;;
69906;SDS011;57190;47.918;8.112;2024-01-15T07:50:32;3.03;;;2.30;;
69906;SDS011;57190;47.918;8.112;2024-01-15T07:52:58;2.80;;;2.33;;
69906;SDS011;57190;47.918;8.112;2024-01-15T07:55:23;2.50;;;2.27;;
69906;SDS011;57190;47.918;8.112;2024-01-15T07:57:49;2.73;;;2.30;;
69906;SDS011;57190;47.918;8.112;2024-01-15T08:00:15;3.03;;;2.37;;
69906;SDS011;57190;47.918;8.112;2024-01-15T08:02:40;2.50;;;2.27;;
69906;SDS011;57190;47.918;8.112;2024-01-15T08:05:06;3.90;;;2.50;;
69906;SDS011;57190;47.918;8.112;2024-01-15T08:07:31;3.40;;;2.10;;
69906;SDS011;57190;47.918;8.112;2024-01-15T08:09:57;3.23;;;2.27;;
69906;SDS011;57190;47.918;8.112;2024-01-15T08:12:23;3.03;;;2.17;;
69906;SDS011;57190;47.918;8.112;2024-01-15T08:14:49;1.83;;;1.70;;
69906;SDS011;57190;47.918;8.112;2024-01-15T08:17:14;2.77;;;2.00;;
69906;SDS011;57190;47.918;8.112;2024-01-15T08:19:41;2.23;;;1.53;;
69906;SDS011;57190;47.918;8.112;2024-01-15T08:22:07;1.53;;;1.37;;
69906;SDS011;57190;47.918;8.112;2024-01-15T08:24:33;1.57;;;1.47;;
69906;SDS011;57190;47.918;8.112;2024-01-15T08:26:58;1.57;;;1.37;;
69906;SDS011;57190;47.918;8.112;2024-01-15T08:29:24;1.50;;;1.40;;
69906;SDS011;57190;47.918;8.112;2024-01-15T08:31:50;1.50;;;1.23;;
69906;SDS011;57190;47.918;8.112;2024-01-15T08:34:15;1.47;;;1.07;;
69906;SDS011;57190;47.918;8.112;2024-01-15T08:36:41;1.20;;;1.10;;
69906;SDS011;57190;47.918;8.112;2024-01-15T08:39:07;1.50;;;1.40;;
69906;SDS011;57190;47.918;8.112;2024-01-15T08:41:34;1.50;;;1.40;;
69906;SDS011;57190;47.918;8.112;2024-01-15T08:43:59;1.50;;;1.40;;
69906;SDS011;57190;47.918;8.112;2024-01-15T08:46:25;1.10;;;1.00;;
69906;SDS011;57190;47.918;8.112;2024-01-15T08:48:50;1.93;;;1.30;;
69906;SDS011;57190;47.918;8.112;2024-01-15T08:51:16;1.40;;;1.30;;
69906;SDS011;57190;47.918;8.112;2024-01-15T08:53:43;2.30;;;1.20;;
69906;SDS011;57190;47.918;8.112;2024-01-15T08:56:09;1.50;;;1.40;;
69906;SDS011;57190;47.918;8.112;2024-01-15T08:58:34;1.40;;;1.30;;
69906;SDS011;57190;47.918;8.112;2024-01-15T09:01:00;1.53;;;1.30;;
69906;SDS011;57190;47.918;8.112;2024-01-15T09:03:26;1.67;;;1.30;;
69906;SDS011;57190;47.918;8.112;2024-01-15T09:05:51;2.27;;;1.97;;
69906;SDS011;57190;47.918;8.112;2024-01-15T09:08:17;2.27;;;1.50;;
69906;SDS011;57190;47.918;8.112;2024-01-15T09:10:43;1.87;;;1.30;;
69906;SDS011;57190;47.918;8.112;2024-01-15T09:13:08;1.70;;;1.30;;
69906;SDS011;57190;47.918;8.112;2024-01-15T09:15:34;1.70;;;1.60;;
69906;SDS011;57190;47.918;8.112;2024-01-15T09:17:59;2.87;;;2.50;;
69906;SDS011;57190;47.918;8.112;2024-01-15T09:20:27;2.33;;;2.10;;
69906;SDS011;57190;47.918;8.112;2024-01-15T09:22:53;2.57;;;2.10;;
69906;SDS011;57190;47.918;8.112;2024-01-15T09:25:19;2.77;;;2.23;;
69906;SDS011;57190;47.918;8.112;2024-01-15T09:27:44;2.20;;;2.00;;
69906;SDS011;57190;47.918;8.112;2024-01-15T09:30:10;2.23;;;1.90;;
69906;SDS011;57190;47.918;8.112;2024-01-15T09:32:36;2.60;;;2.30;;
69906;SDS011;57190;47.918;8.112;2024-01-15T09:35:02;5.53;;;3.90;;
69906;SDS011;57190;47.918;8.112;2024-01-15T09:37:27;2.90;;;2.50;;
69906;SDS011;57190;47.918;8.112;2024-01-15T09:39:53;3.50;;;2.60;;
69906;SDS011;57190;47.918;8.112;2024-01-15T09:42:20;2.63;;;2.40;;
69906;SDS011;57190;47.918;8.112;2024-01-15T09:44:48;2.97;;;2.20;;
69906;SDS011;57190;47.918;8.112;2024-01-15T09:47:14;3.07;;;2.77;;
69906;SDS011;57190;47.918;8.112;2024-01-15T09:49:41;4.13;;;3.63;;
69906;SDS011;57190;47.918;8.112;2024-01-15T09:52:07;2.77;;;2.47;;
69906;SDS011;57190;47.918;8.112;2024-01-15T09:54:34;2.27;;;1.80;;
69906;SDS011;57190;47.918;8.112;2024-01-15T09:57:02;1.83;;;1.70;;
69906;SDS011;57190;47.918;8.112;2024-01-15T09:59:28;2.43;;;2.23;;
69906;SDS011;57190;47.918;8.112;2024-01-15T10:01:56;2.83;;;1.80;;
69906;SDS011;57190;47.918;8.112;2024-01-15T10:04:24;1.53;;;1.43;;
69906;SDS011;57190;47.918;8.112;2024-01-15T10:06:50;2.00;;;1.80;;
69906;SDS011;57190;47.918;8.112;2024-01-15T10:09:17;2.40;;;2.20;;
69906;SDS011;57190;47.918;8.112;2024-01-15T10:11:43;2.43;;;2.10;;
69906;SDS011;57190;47.918;8.112;2024-01-15T10:14:10;2.33;;;1.90;;
69906;SDS011;57190;47.918;8.112;2024-01-15T10:16:39;1.97;;;1.80;;
69906;SDS011;57190;47.918;8.112;2024-01-15T10:19:05;2.87;;;2.20;;
69906;SDS011;57190;47.918;8.112;2024-01-15T10:21:34;1.73;;;1.60;;
69906;SDS011;57190;47.918;8.112;2024-01-15T10:24:01;1.87;;;1.60;;
69906;SDS011;57190;47.918;8.112;2024-01-15T10:26:27;1.50;;;1.40;;
69906;SDS011;57190;47.918;8.112;2024-01-15T10:28:53;1.37;;;1.27;;
69906;SDS011;57190;47.918;8.112;2024-01-15T10:31:19;1.20;;;1.10;;
69906;SDS011;57190;47.918;8.112;2024-01-15T10:33:47;1.23;;;1.20;;
69906;SDS011;57190;47.918;8.112;2024-01-15T10:36:14;1.93;;;1.13;;
69906;SDS011;57190;47.918;8.112;2024-01-15T10:38:41;1.63;;;1.53;;
69906;SDS011;57190;47.918;8.112;2024-01-15T10:41:08;3.40;;;1.67;;
69906;SDS011;57190;47.918;8.112;2024-01-15T10:43:33;1.60;;;1.10;;
69906;SDS011;57190;47.918;8.112;2024-01-15T10:45:59;1.83;;;1.47;;
69906;SDS011;57190;47.918;8.112;2024-01-15T10:48:25;1.70;;;1.40;;
69906;SDS011;57190;47.918;8.112;2024-01-15T10:50:53;1.90;;;1.60;;
69906;SDS011;57190;47.918;8.112;2024-01-15T10:53:19;1.60;;;1.50;;
69906;SDS011;57190;47.918;8.112;2024-01-15T10:55:46;1.60;;;1.50;;
69906;SDS011;57190;47.918;8.112;2024-01-15T10:58:13;2.00;;;1.60;;
69906;SDS011;57190;47.918;8.112;2024-01-15T11:00:40;2.07;;;1.83;;
69906;SDS011;57190;47.918;8.112;2024-01-15T11:03:06;2.10;;;1.90;;
69906;SDS011;57190;47.918;8.112;2024-01-15T11:05:38;2.23;;;1.90;;
69906;SDS011;57190;47.918;8.112;2024-01-15T11:08:07;2.80;;;1.73;;
69906;SDS011;57190;47.918;8.112;2024-01-15T11:10:51;2.13;;;1.80;;
69906;SDS011;57190;47.918;8.112;2024-01-15T11:18:34;2.43;;;1.70;;
69906;SDS011;57190;47.918;8.112;2024-01-15T11:23:42;1.70;;;1.60;;
69906;SDS011;57190;47.918;8.112;2024-01-15T11:26:28;1.67;;;1.57;;
69906;SDS011;57190;47.918;8.112;2024-01-15T11:28:55;2.10;;;1.90;;
69906;SDS011;57190;47.918;8.112;2024-01-15T11:31:28;2.80;;;2.10;;
69906;SDS011;57190;47.918;8.112;2024-01-15T11:34:17;4.13;;;2.97;;
69906;SDS011;57190;47.918;8.112;2024-01-15T11:41:54;3.43;;;2.80;;
69906;SDS011;57190;47.918;8.112;2024-01-15T11:44:20;4.17;;;2.63;;
69906;SDS011;57190;47.918;8.112;2024-01-15T11:46:57;3.13;;;2.60;;
69906;SDS011;57190;47.918;8.112;2024-01-15T11:52:32;2.80;;;2.40;;
69906;SDS011;57190;47.918;8.112;2024-01-15T11:57:40;3.17;;;2.40;;
69906;SDS011;57190;47.918;8.112;2024-01-15T12:00:10;2.87;;;2.40;;
69906;SDS011;57190;47.918;8.112;2024-01-15T12:02:37;2.60;;;2.40;;
69906;SDS011;57190;47.918;8.112;2024-01-15T12:05:05;3.67;;;2.90;;
69906;SDS011;57190;47.918;8.112;2024-01-15T12:07:31;3.60;;;2.50;;
69906;SDS011;57190;47.918;8.112;2024-01-15T12:09:56;3.40;;;3.07;;
69906;SDS011;57190;47.918;8.112;2024-01-15T12:12:28;2.70;;;2.50;;
69906;SDS011;57190;47.918;8.112;2024-01-15T12:14:59;2.80;;;2.50;;
69906;SDS011;57190;47.918;8.112;2024-01-15T12:17:25;2.70;;;2.40;;
69906;SDS011;57190;47.918;8.112;2024-01-15T12:19:50;3.43;;;2.67;;
69906;SDS011;57190;47.918;8.112;2024-01-15T12:22:16;3.20;;;2.80;;
69906;SDS011;57190;47.918;8.112;2024-01-15T12:24:42;3.70;;;2.67;;
69906;SDS011;57190;47.918;8.112;2024-01-15T12:27:07;3.17;;;2.67;;
69906;SDS011;57190;47.918;8.112;2024-01-15T12:29:33;3.57;;;2.60;;
69906;SDS011;57190;47.918;8.112;2024-01-15T12:31:58;2.70;;;2.40;;
69906;SDS011;57190;47.918;8.112;2024-01-15T12:34:24;2.87;;;2.40;;
69906;SDS011;57190;47.918;8.112;2024-01-15T12:36:56;2.43;;;2.20;;
69906;SDS011;57190;47.918;8.112;2024-01-15T12:39:22;3.10;;;2.53;;
69906;SDS011;57190;47.918;8.112;2024-01-15T12:41:48;2.43;;;2.20;;
69906;SDS011;57190;47.918;8.112;2024-01-15T12:44:13;2.67;;;2.40;;
69906;SDS011;57190;47.918;8.112;2024-01-15T12:46:39;3.63;;;2.47;;
69906;SDS011;57190;47.918;8.112;2024-01-15T12:49:05;3.10;;;2.40;;
69906;SDS011;57190;47.918;8.112;2024-01-15T12:51:30;2.40;;;2.20;;
69906;SDS011;57190;47.918;8.112;2024-01-15T12:53:59;3.03;;;2.30;;
69906;SDS011;57190;47.918;8.112;2024-01-15T12:56:24;3.50;;;2.37;;
69906;SDS011;57190;47.918;8.112;2024-01-15T12:58:50;3.10;;;2.60;;
69906;SDS011;57190;47.918;8.112;2024-01-15T13:01:15;3.10;;;2.30;;
69906;SDS011;57190;47.918;8.112;2024-01-15T13:03:41;2.70;;;2.27;;
69906;SDS011;57190;47.918;8.112;2024-01-15T13:06:06;2.47;;;2.07;;
69906;SDS011;57190;47.918;8.112;2024-01-15T13:08:32;2.20;;;2.00;;
69906;SDS011;57190;47.918;8.112;2024-01-15T13:10:57;2.33;;;2.07;;
69906;SDS011;57190;47.918;8.112;2024-01-15T13:13:23;2.17;;;1.93;;
69906;SDS011;57190;47.918;8.112;2024-01-15T13:15:48;2.37;;;2.17;;
69906;SDS011;57190;47.918;8.112;2024-01-15T13:18:14;2.60;;;2.40;;
69906;SDS011;57190;47.918;8.112;2024-01-15T13:20:40;3.30;;;2.73;;
69906;SDS011;57190;47.918;8.112;2024-01-15T13:23:06;2.83;;;2.47;;
69906;SDS011;57190;47.918;8.112;2024-01-15T13:25:31;2.87;;;2.30;;
69906;SDS011;57190;47.918;8.112;2024-01-15T13:28:00;2.43;;;2.00;;
69906;SDS011;57190;47.918;8.112;2024-01-15T13:30:27;1.70;;;1.60;;
69906;SDS011;57190;47.918;8.112;2024-01-15T13:32:53;2.47;;;1.83;;
69906;SDS011;57190;47.918;8.112;2024-01-15T13:35:19;1.90;;;1.80;;
69906;SDS011;57190;47.918;8.112;2024-01-15T13:37:44;2.50;;;1.80;;
69906;SDS011;57190;47.918;8.112;2024-01-15T13:40:10;2.43;;;2.03;;
69906;SDS011;57190;47.918;8.112;2024-01-15T13:42:41;2.07;;;1.57;;
69906;SDS011;57190;47.918;8.112;2024-01-15T13:45:07;2.30;;;2.10;;
69906;SDS011;57190;47.918;8.112;2024-01-15T13:47:33;1.87;;;1.77;;
69906;SDS011;57190;47.918;8.112;2024-01-15T13:49:58;1.77;;;1.60;;
69906;SDS011;57190;47.918;8.112;2024-01-15T13:52:24;1.63;;;1.50;;
69906;SDS011;57190;47.918;8.112;2024-01-15T13:54:49;2.47;;;1.90;;
69906;SDS011;57190;47.918;8.112;2024-01-15T13:57:15;2.77;;;1.90;;
69906;SDS011;57190;47.918;8.112;2024-01-15T13:59:44;2.60;;;2.07;;
69906;SDS011;57190;47.918;8.112;2024-01-15T14:02:09;2.37;;;2.00;;
69906;SDS011;57190;47.918;8.112;2024-01-15T14:04:35;2.30;;;2.10;;
69906;SDS011;57190;47.918;8.112;2024-01-15T14:07:01;2.27;;;2.00;;
69906;SDS011;57190;47.918;8.112;2024-01-15T14:09:26;2.37;;;2.17;;
69906;SDS011;57190;47.918;8.112;2024-01-15T14:11:51;2.30;;;2.10;;
69906;SDS011;57190;47.918;8.112;2024-01-15T14:14:17;2.93;;;2.13;;
69906;SDS011;57190;47.918;8.112;2024-01-15T14:16:43;1.97;;;1.80;;
69906;SDS011;57190;47.918;8.112;2024-01-15T14:19:08;2.93;;;2.13;;
69906;SDS011;57190;47.918;8.112;2024-01-15T14:21:34;2.93;;;2.20;;
69906;SDS011;57190;47.918;8.112;2024-01-15T14:24:00;3.20;;;2.00;;
69906;SDS011;57190;47.918;8.112;2024-01-15T14:26:26;2.33;;;1.97;;
69906;SDS011;57190;47.918;8.112;2024-01-15T14:28:53;1.87;;;1.70;;
69906;SDS011;57190;47.918;8.112;2024-01-15T14:31:19;2.10;;;1.73;;
69906;SDS011;57190;47.918;8.112;2024-01-15T14:33:45;2.17;;;1.93;;
69906;SDS011;57190;47.918;8.112;2024-01-15T14:36:11;2.17;;;1.70;;
69906;SDS011;57190;47.918;8.112;2024-01-15T14:38:36;1.83;;;1.60;;
69906;SDS011;57190;47.918;8.112;2024-01-15T14:41:01;2.00;;;1.83;;
69906;SDS011;57190;47.918;8.112;2024-01-15T14:43:27;2.10;;;1.90;;
69906;SDS011;57190;47.918;8.112;2024-01-15T14:45:52;2.70;;;1.80;;
69906;SDS011;57190;47.918;8.112;2024-01-15T14:48:18;2.27;;;2.07;;
69906;SDS011;57190;47.918;8.112;2024-01-15T14:50:43;1.87;;;1.70;;
69906;SDS011;57190;47.918;8.112;2024-01-15T14:53:09;2.10;;;1.90;;
69906;SDS011;57190;47.918;8.112;2024-01-15T14:55:34;1.97;;;1.87;;
69906;SDS011;57190;47.918;8.112;2024-01-15T14:58:00;2.53;;;1.80;;
69906;SDS011;57190;47.918;8.112;2024-01-15T15:00:25;2.57;;;1.77;;
69906;SDS011;57190;47.918;8.112;2024-01-15T15:02:51;3.33;;;2.03;;
69906;SDS011;57190;47.918;8.112;2024-01-15T15:05:16;2.23;;;2.03;;
69906;SDS011;57190;47.918;8.112;2024-01-15T15:07:42;1.80;;;1.70;;
69906;SDS011;57190;47.918;8.112;2024-01-15T15:10:09;2.77;;;2.00;;